createdAt,value
2018-03-18T00:02:13.601Z,1.30
2018-03-18T00:04:41.327Z,1.53
2018-03-18T00:07:09.121Z,1.43
2018-03-18T00:09:36.848Z,1.57
2018-03-18T00:12:08.415Z,1.40
2018-03-18T00:14:36.177Z,1.70
2018-03-18T00:17:04.001Z,1.30
2018-03-18T00:19:31.871Z,1.43
2018-03-18T00:21:59.680Z,1.37
2018-03-18T00:24:27.384Z,1.30
2018-03-18T00:26:55.119Z,1.37
2018-03-18T00:29:22.866Z,1.63
2018-03-18T00:31:51.355Z,1.57
2018-03-18T00:34:19.062Z,1.40
2018-03-18T00:36:46.881Z,1.30
2018-03-18T00:39:15.444Z,1.30
2018-03-18T00:41:43.235Z,1.00
2018-03-18T00:44:10.969Z,1.30
2018-03-18T00:46:38.731Z,1.20
2018-03-18T00:49:06.454Z,1.20
2018-03-18T00:51:46.142Z,1.10
2018-03-18T00:54:13.933Z,1.10
2018-03-18T00:56:41.693Z,1.50
2018-03-18T00:59:09.450Z,1.10
2018-03-18T01:01:37.217Z,1.53
2018-03-18T01:04:04.986Z,1.63
2018-03-18T01:06:32.798Z,1.30
2018-03-18T01:09:00.518Z,0.80
2018-03-18T01:11:28.258Z,1.20
2018-03-18T01:13:55.970Z,1.40
2018-03-18T01:16:24.506Z,1.50
2018-03-18T01:18:52.258Z,1.40
2018-03-18T01:21:20.011Z,0.93
2018-03-18T01:23:47.751Z,2.03
2018-03-18T01:26:15.605Z,2.10
2018-03-18T01:28:43.361Z,1.67
2018-03-18T01:31:11.161Z,2.20
2018-03-18T01:33:38.941Z,2.30
2018-03-18T01:36:06.742Z,2.33
2018-03-18T01:38:34.534Z,2.33
2018-03-18T01:41:02.284Z,2.33
2018-03-18T01:43:30.109Z,2.20
2018-03-18T01:45:57.908Z,1.83
2018-03-18T01:48:25.669Z,1.80
2018-03-18T01:50:53.487Z,2.37
2018-03-18T01:53:22.084Z,3.80
2018-03-18T01:55:50.578Z,3.90
2018-03-18T01:58:18.357Z,4.27
2018-03-18T02:00:46.145Z,5.17
2018-03-18T02:03:13.959Z,5.00
2018-03-18T02:05:41.680Z,4.90
2018-03-18T02:08:09.475Z,5.47
2018-03-18T02:10:37.267Z,6.80
2018-03-18T02:13:05.080Z,6.00
2018-03-18T02:15:32.805Z,5.70
2018-03-18T02:18:00.565Z,5.43
2018-03-18T02:20:28.428Z,5.33
2018-03-18T02:22:56.930Z,5.57
2018-03-18T02:25:24.637Z,6.13
2018-03-18T02:27:52.438Z,6.40
2018-03-18T02:30:20.197Z,6.97
2018-03-18T02:32:47.992Z,6.90
2018-03-18T02:35:15.716Z,5.93
2018-03-18T02:37:43.454Z,6.87
2018-03-18T02:40:11.265Z,6.57
2018-03-18T02:42:38.971Z,6.50
2018-03-18T02:45:06.801Z,6.23
2018-03-18T02:47:34.601Z,5.90
2018-03-18T02:50:02.413Z,6.73
2018-03-18T02:52:30.128Z,5.63
2018-03-18T02:54:57.876Z,6.60
2018-03-18T02:57:25.690Z,6.20
2018-03-18T02:59:53.456Z,6.07
2018-03-18T03:02:21.177Z,6.23
2018-03-18T03:04:49.505Z,6.73
2018-03-18T03:07:17.213Z,5.80
2018-03-18T03:09:44.921Z,6.00
2018-03-18T03:12:12.659Z,5.93
2018-03-18T03:14:40.471Z,6.90
2018-03-18T03:17:08.241Z,6.57
2018-03-18T03:19:35.994Z,6.63
2018-03-18T03:22:03.875Z,5.83
2018-03-18T03:24:31.655Z,6.20
2018-03-18T03:26:59.410Z,6.20
2018-03-18T03:29:27.244Z,5.90
2018-03-18T03:31:55.086Z,6.43
2018-03-18T03:34:22.876Z,6.30
2018-03-18T03:36:50.618Z,5.83
2018-03-18T03:39:18.335Z,5.40
2018-03-18T03:41:46.077Z,5.30
2018-03-18T03:44:13.902Z,5.83
2018-03-18T03:46:41.707Z,5.33
2018-03-18T03:49:09.459Z,6.43
2018-03-18T03:51:37.276Z,5.60
2018-03-18T03:54:05.074Z,6.57
2018-03-18T03:56:32.837Z,6.63
2018-03-18T03:59:00.563Z,6.13
2018-03-18T04:01:28.340Z,6.40
2018-03-18T04:03:56.048Z,7.20
2018-03-18T04:06:23.785Z,6.70
2018-03-18T04:08:52.307Z,7.07
2018-03-18T04:11:20.028Z,6.60
2018-03-18T04:13:47.840Z,7.30
2018-03-18T04:16:15.555Z,6.67
2018-03-18T04:18:43.323Z,7.23
2018-03-18T04:21:11.073Z,6.90
2018-03-18T04:23:38.884Z,7.37
2018-03-18T04:26:06.621Z,7.40
2018-03-18T04:28:34.395Z,8.50
2018-03-18T04:31:02.181Z,9.00
2018-03-18T04:33:29.913Z,7.53
2018-03-18T04:35:57.650Z,9.57
2018-03-18T04:38:25.480Z,9.80
2018-03-18T04:40:53.285Z,9.73
2018-03-18T04:43:21.776Z,11.33
2018-03-18T04:45:49.580Z,9.87
2018-03-18T04:48:17.334Z,10.60
2018-03-18T04:50:45.066Z,11.17
2018-03-18T04:53:12.789Z,11.07
2018-03-18T04:55:40.553Z,12.63
2018-03-18T04:58:08.331Z,11.07
2018-03-18T05:00:36.062Z,11.50
2018-03-18T05:03:03.868Z,10.87
2018-03-18T05:05:31.640Z,12.80
2018-03-18T05:07:59.377Z,12.40
2018-03-18T05:10:27.123Z,11.53
2018-03-18T05:12:54.903Z,11.90
2018-03-18T05:15:22.622Z,12.93
2018-03-18T05:17:51.203Z,12.37
2018-03-18T05:20:18.960Z,12.47
2018-03-18T05:22:46.728Z,11.60
2018-03-18T05:25:14.491Z,11.57
2018-03-18T05:27:42.291Z,12.87
2018-03-18T05:30:10.016Z,13.60
2018-03-18T05:32:37.878Z,12.93
2018-03-18T05:35:05.693Z,13.33
2018-03-18T05:37:34.271Z,14.27
2018-03-18T05:40:02.060Z,12.70
2018-03-18T05:42:29.825Z,13.20
2018-03-18T05:44:57.634Z,14.00
2018-03-18T05:47:25.398Z,12.30
2018-03-18T05:49:53.252Z,12.07
2018-03-18T05:52:20.998Z,11.67
2018-03-18T05:54:48.780Z,10.70
2018-03-18T05:57:16.575Z,12.70
2018-03-18T05:59:44.384Z,12.60
2018-03-18T06:02:12.115Z,11.50
2018-03-18T06:04:39.946Z,10.07
2018-03-18T06:07:07.729Z,9.23
2018-03-18T06:09:35.501Z,8.37
2018-03-18T06:12:03.249Z,6.27
2018-03-18T06:17:03.932Z,6.20
2018-03-18T06:19:31.709Z,6.17
2018-03-18T06:21:59.434Z,7.57
2018-03-18T06:24:27.229Z,6.77
2018-03-18T06:26:55.048Z,6.47
2018-03-18T06:29:22.773Z,6.20
2018-03-18T06:31:50.580Z,6.60
2018-03-18T06:34:18.384Z,7.00
2018-03-18T06:36:46.099Z,5.40
2018-03-18T06:39:13.867Z,5.70
2018-03-18T06:41:41.676Z,5.50
2018-03-18T06:44:09.446Z,5.10
2018-03-18T06:46:37.188Z,4.63
2018-03-18T06:49:04.992Z,4.10
2018-03-18T06:51:32.797Z,5.37
2018-03-18T06:54:00.694Z,4.70
2018-03-18T06:56:28.535Z,4.53
2018-03-18T06:58:56.305Z,4.23
2018-03-18T07:01:24.876Z,4.00
2018-03-18T07:03:52.621Z,3.60
2018-03-18T07:06:23.716Z,4.20
2018-03-18T07:08:52.360Z,3.20
2018-03-18T07:11:20.147Z,4.07
2018-03-18T07:13:47.921Z,3.13
2018-03-18T07:16:15.766Z,5.10
2018-03-18T07:18:43.590Z,3.90
2018-03-18T07:21:11.466Z,3.20
2018-03-18T07:23:39.368Z,3.67
2018-03-18T07:26:07.196Z,3.43
2018-03-18T07:28:35.044Z,3.57
2018-03-18T07:31:03.532Z,3.50
2018-03-18T07:33:31.308Z,4.33
2018-03-18T07:35:59.021Z,4.80
2018-03-18T07:38:26.874Z,4.43
2018-03-18T07:40:54.658Z,4.23
2018-03-18T07:43:22.424Z,4.80
2018-03-18T07:45:50.856Z,5.00
2018-03-18T07:48:18.896Z,4.57
2018-03-18T07:50:47.464Z,4.47
2018-03-18T07:53:15.258Z,3.33
2018-03-18T07:55:43.023Z,2.93
2018-03-18T07:58:10.826Z,3.43
2018-03-18T08:00:38.607Z,3.23
2018-03-18T08:03:07.351Z,2.80
2018-03-18T08:05:35.222Z,2.73
2018-03-18T08:08:03.065Z,3.37
2018-03-18T08:10:30.852Z,2.80
2018-03-18T08:12:58.649Z,3.03
2018-03-18T08:15:26.452Z,2.93
2018-03-18T08:17:54.289Z,2.73
2018-03-18T08:20:22.071Z,3.00
2018-03-18T08:22:49.838Z,2.77
2018-03-18T08:25:17.576Z,2.50
2018-03-18T08:27:45.366Z,2.43
2018-03-18T08:30:13.080Z,3.20
2018-03-18T08:32:46.770Z,3.00
2018-03-18T08:35:15.337Z,2.97
2018-03-18T08:37:43.132Z,2.47
2018-03-18T08:40:10.921Z,2.97
2018-03-18T08:42:39.920Z,3.03
2018-03-18T08:45:09.309Z,3.10
2018-03-18T08:47:37.028Z,2.43
2018-03-18T08:50:04.863Z,3.10
2018-03-18T08:52:33.501Z,2.67
2018-03-18T08:55:01.410Z,3.50
2018-03-18T08:57:31.028Z,3.00
2018-03-18T08:59:58.804Z,2.90
2018-03-18T09:02:26.613Z,3.60
2018-03-18T09:04:59.584Z,2.73
2018-03-18T09:07:27.367Z,2.90
2018-03-18T09:09:55.187Z,3.30
2018-03-18T09:12:23.676Z,2.90
2018-03-18T09:14:53.934Z,3.10
2018-03-18T09:17:23.349Z,2.70
2018-03-18T09:19:51.131Z,3.10
2018-03-18T09:22:18.860Z,3.50
2018-03-18T09:24:46.670Z,2.40
2018-03-18T09:27:14.431Z,3.50
2018-03-18T09:29:42.244Z,2.50
2018-03-18T09:32:10.012Z,3.10
2018-03-18T09:34:38.462Z,2.83
2018-03-18T09:37:06.268Z,2.63
2018-03-18T09:39:34.073Z,1.90
2018-03-18T09:42:01.893Z,2.87
2018-03-18T09:44:29.854Z,2.80
2018-03-18T09:46:57.651Z,3.10
2018-03-18T09:49:25.382Z,3.57
2018-03-18T09:51:53.222Z,3.13
2018-03-18T09:54:21.034Z,4.10
2018-03-18T09:56:49.797Z,3.60
2018-03-18T09:59:20.159Z,4.07
2018-03-18T10:01:47.975Z,4.40
2018-03-18T10:04:19.928Z,3.90
2018-03-18T10:06:47.801Z,3.50
2018-03-18T10:09:15.596Z,3.20
2018-03-18T10:11:43.349Z,3.80
2018-03-18T10:14:11.132Z,3.97
2018-03-18T10:16:38.946Z,4.17
2018-03-18T10:19:06.746Z,4.50
2018-03-18T10:21:34.527Z,4.63
2018-03-18T10:24:02.367Z,4.30
2018-03-18T10:26:30.146Z,3.80
2018-03-18T10:29:01.171Z,3.80
2018-03-18T10:31:29.779Z,4.37
2018-03-18T10:33:57.520Z,4.30
2018-03-18T10:36:25.309Z,3.70
2018-03-18T10:38:53.121Z,3.40
2018-03-18T10:41:20.893Z,3.53
2018-03-18T10:43:48.696Z,4.30
2018-03-18T10:46:17.739Z,2.93
2018-03-18T10:48:45.814Z,3.33
2018-03-18T10:51:13.563Z,3.80
2018-03-18T10:53:41.320Z,3.40
2018-03-18T10:56:09.081Z,3.40
2018-03-18T10:58:36.873Z,3.70
2018-03-18T11:01:10.387Z,2.70
2018-03-18T11:03:40.820Z,3.43
2018-03-18T11:06:08.603Z,3.50
2018-03-18T11:08:36.371Z,4.37
2018-03-18T11:11:04.133Z,3.57
2018-03-18T11:13:31.857Z,3.80
2018-03-18T11:15:59.624Z,3.90
2018-03-18T11:18:27.496Z,3.77
2018-03-18T11:20:56.133Z,3.73
2018-03-18T11:23:23.853Z,3.47
2018-03-18T11:25:51.660Z,2.90
2018-03-18T11:28:19.406Z,3.80
2018-03-18T11:30:47.193Z,3.70
2018-03-18T11:33:15.000Z,3.70
2018-03-18T11:35:42.735Z,3.30
2018-03-18T11:38:10.508Z,3.77
2018-03-18T11:40:38.267Z,3.47
2018-03-18T11:43:05.977Z,4.47
2018-03-18T11:45:33.802Z,3.60
2018-03-18T11:48:01.586Z,3.50
2018-03-18T11:50:29.413Z,3.43
2018-03-18T11:52:57.137Z,3.93
2018-03-18T11:55:24.895Z,3.80
2018-03-18T11:57:57.204Z,3.57
2018-03-18T12:00:24.977Z,3.27
2018-03-18T12:02:52.772Z,4.30
2018-03-18T12:05:20.505Z,4.30
2018-03-18T12:07:48.303Z,3.30
2018-03-18T12:10:16.165Z,3.30
2018-03-18T12:12:46.478Z,3.40
2018-03-18T12:15:14.288Z,3.30
2018-03-18T12:17:42.047Z,3.50
2018-03-18T12:20:09.894Z,3.27
2018-03-18T12:22:37.654Z,2.87
2018-03-18T12:25:05.383Z,3.37
2018-03-18T12:27:33.100Z,3.47
2018-03-18T12:30:00.833Z,3.10
2018-03-18T12:32:29.368Z,3.70
2018-03-18T12:34:57.091Z,4.20
2018-03-18T12:37:24.911Z,3.90
2018-03-18T12:40:05.797Z,3.73
2018-03-18T12:42:45.466Z,3.33
2018-03-18T12:45:13.204Z,3.70
2018-03-18T12:47:40.917Z,3.10
2018-03-18T12:50:08.704Z,2.70
2018-03-18T12:52:36.472Z,2.30
2018-03-18T12:55:04.261Z,2.00
2018-03-18T12:57:32.043Z,1.80
2018-03-18T12:59:59.845Z,1.20
2018-03-18T13:02:28.392Z,2.17
2018-03-18T13:04:56.141Z,1.90
2018-03-18T13:07:24.000Z,1.30
2018-03-18T13:09:51.778Z,1.30
2018-03-18T13:12:19.567Z,1.30
2018-03-18T13:14:47.353Z,1.47
2018-03-18T13:17:15.850Z,1.00
2018-03-18T13:19:43.649Z,1.10
2018-03-18T13:22:11.436Z,1.20
2018-03-18T13:24:39.803Z,1.70
2018-03-18T13:27:07.720Z,2.60
2018-03-18T13:29:36.326Z,1.00
2018-03-18T13:32:04.164Z,1.23
2018-03-18T13:34:32.807Z,1.52
2018-03-18T13:37:00.585Z,1.20
2018-03-18T13:39:30.859Z,1.23
2018-03-18T13:42:00.221Z,1.30
2018-03-18T13:44:28.255Z,1.47
2018-03-18T13:46:56.007Z,1.00
2018-03-18T13:49:24.522Z,1.07
2018-03-18T13:51:52.334Z,0.87
2018-03-18T13:54:20.226Z,0.93
2018-03-18T13:56:48.042Z,1.97
2018-03-18T13:59:15.817Z,1.13
2018-03-18T14:01:43.563Z,1.40
2018-03-18T14:04:11.457Z,1.10
2018-03-18T14:06:39.546Z,1.20
2018-03-18T14:09:07.678Z,1.10
2018-03-18T14:11:35.446Z,1.00
2018-03-18T14:14:03.635Z,1.20
2018-03-18T14:16:32.566Z,1.50
2018-03-18T14:19:00.588Z,0.80
2018-03-18T14:21:32.095Z,1.03
2018-03-18T14:24:00.695Z,0.80
2018-03-18T14:26:36.497Z,1.10
2018-03-18T14:29:07.399Z,0.73
2018-03-18T14:31:35.636Z,1.30
2018-03-18T14:34:04.313Z,0.93
2018-03-18T14:36:32.401Z,0.93
2018-03-18T14:39:01.060Z,0.90
2018-03-18T14:41:29.719Z,1.50
2018-03-18T14:43:57.602Z,0.90
2018-03-18T14:46:27.178Z,0.97
2018-03-18T14:48:55.160Z,1.10
2018-03-18T14:51:24.358Z,0.70
2018-03-18T14:53:52.162Z,0.87
2018-03-18T14:56:20.095Z,1.27
2018-03-18T14:58:48.731Z,1.23
2018-03-18T15:01:18.391Z,1.27
2018-03-18T15:03:46.706Z,1.97
2018-03-18T15:06:15.597Z,0.70
2018-03-18T15:08:43.369Z,0.70
2018-03-18T15:11:11.266Z,0.87
2018-03-18T15:13:39.360Z,1.00
2018-03-18T15:16:07.183Z,2.73
2018-03-18T15:18:34.933Z,0.80
2018-03-18T15:21:03.169Z,0.83
2018-03-18T15:23:31.379Z,1.27
2018-03-18T15:25:59.364Z,1.73
2018-03-18T15:28:27.216Z,1.00
2018-03-18T15:30:55.256Z,0.83
2018-03-18T15:33:23.154Z,0.80
2018-03-18T15:35:50.991Z,0.80
2018-03-18T15:38:19.317Z,2.17
2018-03-18T15:40:47.137Z,2.10
2018-03-18T15:43:15.133Z,1.10
2018-03-18T15:45:43.280Z,1.30
2018-03-18T15:48:11.158Z,1.07
2018-03-18T15:50:38.939Z,1.40
2018-03-18T15:53:06.944Z,0.90
2018-03-18T15:55:37.514Z,1.00
2018-03-18T15:58:05.319Z,0.57
2018-03-18T16:00:34.248Z,0.90
2018-03-18T16:03:02.027Z,1.20
2018-03-18T16:05:29.846Z,1.10
2018-03-18T16:07:57.684Z,1.37
2018-03-18T16:10:25.448Z,0.83
2018-03-18T16:12:53.240Z,1.03
2018-03-18T16:15:21.059Z,1.00
2018-03-18T16:17:50.490Z,1.20
2018-03-18T16:20:18.358Z,1.27
2018-03-18T16:22:46.230Z,0.73
2018-03-18T16:25:14.246Z,0.67
2018-03-18T16:27:42.164Z,1.30
2018-03-18T16:30:21.811Z,1.03
2018-03-18T16:32:52.226Z,0.80
2018-03-18T16:35:20.045Z,0.80
2018-03-18T16:37:52.849Z,1.00
2018-03-18T16:40:20.775Z,1.00
2018-03-18T16:42:48.656Z,1.50
2018-03-18T16:45:16.378Z,1.03
2018-03-18T16:47:44.940Z,1.53
2018-03-18T16:50:12.708Z,1.00
2018-03-18T16:52:40.531Z,0.70
2018-03-18T16:55:09.836Z,1.03
2018-03-18T16:57:38.727Z,1.20
2018-03-18T17:00:06.472Z,1.23
2018-03-18T17:02:38.630Z,1.07
2018-03-18T17:05:07.692Z,1.60
2018-03-18T17:07:42.963Z,0.80
2018-03-18T17:10:10.965Z,1.10
2018-03-18T17:12:41.525Z,0.80
2018-03-18T17:15:12.726Z,1.47
2018-03-18T17:17:41.856Z,1.33
2018-03-18T17:20:16.517Z,1.10
2018-03-18T17:22:46.054Z,0.93
2018-03-18T17:25:14.429Z,1.13
2018-03-18T17:27:43.745Z,0.77
2018-03-18T17:30:12.978Z,1.50
2018-03-18T17:32:41.942Z,1.33
2018-03-18T17:35:11.277Z,0.60
2018-03-18T17:37:41.024Z,0.60
2018-03-18T17:40:10.304Z,0.70
2018-03-18T17:42:38.632Z,0.80
2018-03-18T17:45:18.360Z,0.60
2018-03-18T17:51:08.334Z,0.80
2018-03-18T18:07:05.076Z,1.00
2018-03-18T18:09:36.209Z,1.70
2018-03-18T18:12:08.968Z,0.90
2018-03-18T18:14:41.250Z,1.13
2018-03-18T18:17:09.786Z,1.07
2018-03-18T18:19:37.662Z,1.27
2018-03-18T18:22:07.660Z,0.83
2018-03-18T18:24:36.129Z,1.63
2018-03-18T18:27:04.470Z,1.40
2018-03-18T18:29:32.618Z,1.17
2018-03-18T18:32:01.230Z,1.20
2018-03-18T18:34:29.229Z,1.33
2018-03-18T18:36:58.988Z,1.17
2018-03-18T18:39:27.531Z,1.70
2018-03-18T18:42:01.850Z,2.10
2018-03-18T18:44:30.811Z,1.13
2018-03-18T18:46:58.671Z,1.50
2018-03-18T18:49:26.738Z,2.17
2018-03-18T18:51:54.748Z,1.67
2018-03-18T18:54:23.162Z,1.60
2018-03-18T18:56:50.980Z,1.50
2018-03-18T18:59:18.715Z,2.30
2018-03-18T19:01:46.568Z,1.37
2018-03-18T19:04:15.162Z,1.83
2018-03-18T19:06:42.978Z,1.57
2018-03-18T19:09:10.818Z,1.30
2018-03-18T19:11:39.381Z,1.30
2018-03-18T19:14:07.325Z,1.83
2018-03-18T19:16:36.853Z,1.80
2018-03-18T19:19:05.737Z,1.27
2018-03-18T19:21:35.633Z,1.37
2018-03-18T19:24:07.106Z,1.23
2018-03-18T19:26:38.314Z,1.30
2018-03-18T19:29:07.214Z,1.33
2018-03-18T19:31:37.365Z,0.90
2018-03-18T19:34:12.709Z,1.20
2018-03-18T19:36:46.180Z,1.23
2018-03-18T19:39:17.738Z,1.10
2018-03-18T19:41:49.592Z,1.40
2018-03-18T19:44:26.898Z,1.43
2018-03-18T19:47:01.576Z,2.07
2018-03-18T19:49:37.293Z,1.37
2018-03-18T19:52:13.218Z,1.43
2018-03-18T19:54:49.042Z,1.40
2018-03-18T19:57:21.218Z,1.27
2018-03-18T19:59:57.132Z,1.30
2018-03-18T20:02:29.612Z,1.10
2018-03-18T20:05:06.688Z,1.30
2018-03-18T20:07:43.470Z,1.30
2018-03-18T20:10:20.828Z,1.33
2018-03-18T20:12:57.446Z,1.10
2018-03-18T20:15:30.555Z,2.80
2018-03-18T20:18:03.599Z,1.20
2018-03-18T20:20:31.625Z,1.00
2018-03-18T20:23:04.608Z,0.87
2018-03-18T20:25:37.328Z,1.00
2018-03-18T20:28:06.556Z,1.30
2018-03-18T20:30:39.631Z,1.20
2018-03-18T20:33:13.048Z,4.07
2018-03-18T20:35:45.662Z,1.80
2018-03-18T20:38:17.327Z,1.40
2018-03-18T20:40:52.808Z,1.43
2018-03-18T20:43:27.269Z,1.40
2018-03-18T20:45:56.793Z,1.33
2018-03-18T20:48:32.796Z,1.30
2018-03-18T20:51:06.644Z,1.30
2018-03-18T20:53:34.573Z,1.53
2018-03-18T20:56:02.828Z,1.30
2018-03-18T20:58:36.565Z,1.23
2018-03-18T21:01:10.400Z,1.20
2018-03-18T21:03:44.869Z,1.20
2018-03-18T21:06:16.731Z,1.47
2018-03-18T21:08:45.314Z,1.63
2018-03-18T21:11:16.677Z,1.60
2018-03-18T21:13:48.138Z,1.63
2018-03-18T21:16:19.764Z,2.30
2018-03-18T21:18:52.480Z,1.70
2018-03-18T21:21:23.213Z,1.73
2018-03-18T21:23:51.800Z,1.90
2018-03-18T21:26:26.526Z,1.70
2018-03-18T21:28:56.799Z,1.80
2018-03-18T21:31:27.127Z,1.73
2018-03-18T21:33:56.991Z,1.40
2018-03-18T21:36:26.328Z,1.70
2018-03-18T21:38:54.564Z,1.87
2018-03-18T21:41:22.998Z,1.90
2018-03-18T21:43:50.735Z,1.80
2018-03-18T21:46:18.562Z,2.17
2018-03-18T21:48:46.383Z,2.47
2018-03-18T21:51:14.164Z,2.60
2018-03-18T21:53:41.898Z,1.90
2018-03-18T21:56:09.748Z,2.30
2018-03-18T21:58:37.551Z,2.37
2018-03-18T22:01:05.318Z,2.00
2018-03-18T22:03:33.055Z,3.20
2018-03-18T22:06:00.830Z,2.30
2018-03-18T22:08:29.356Z,2.07
2018-03-18T22:10:57.129Z,2.70
2018-03-18T22:13:24.848Z,2.97
2018-03-18T22:15:52.630Z,3.33
2018-03-18T22:18:20.379Z,2.73
2018-03-18T22:20:48.144Z,3.00
2018-03-18T22:23:15.837Z,2.37
2018-03-18T22:25:43.593Z,2.30
2018-03-18T22:28:11.362Z,2.33
2018-03-18T22:30:39.891Z,2.73
2018-03-18T22:33:07.640Z,2.70
2018-03-18T22:35:35.403Z,2.47
2018-03-18T22:38:03.266Z,2.10
2018-03-18T22:40:31.056Z,2.63
2018-03-18T22:42:58.801Z,2.87
2018-03-18T22:45:26.568Z,2.53
2018-03-18T22:47:54.354Z,2.93
2018-03-18T22:50:22.144Z,2.97
2018-03-18T22:52:49.887Z,2.77
2018-03-18T22:55:17.777Z,2.77
2018-03-18T22:57:45.521Z,2.83
2018-03-18T23:00:18.162Z,3.30
2018-03-18T23:02:46.677Z,2.63
2018-03-18T23:05:14.402Z,3.27
2018-03-18T23:07:42.295Z,3.03
2018-03-18T23:10:10.027Z,2.77
2018-03-18T23:12:37.788Z,3.30
2018-03-18T23:15:05.597Z,2.80
2018-03-18T23:17:33.364Z,2.90
2018-03-18T23:20:01.152Z,3.13
2018-03-18T23:22:28.950Z,2.87
2018-03-18T23:24:56.847Z,3.70
2018-03-18T23:27:24.887Z,3.10
2018-03-18T23:29:52.653Z,2.50
2018-03-18T23:32:20.373Z,3.13
2018-03-18T23:34:48.125Z,3.00
2018-03-18T23:37:16.666Z,3.27
2018-03-18T23:39:44.439Z,3.00
2018-03-18T23:42:12.210Z,4.43
2018-03-18T23:44:39.913Z,3.30
2018-03-18T23:47:07.673Z,3.20
2018-03-18T23:49:35.453Z,3.60
2018-03-18T23:52:03.266Z,3.70
2018-03-18T23:54:31.115Z,3.97
2018-03-18T23:56:58.897Z,3.63
2018-03-18T23:59:26.644Z,3.27
